Warfield, Virginia
Current Conditions -  °F | °C
As of 7:55 PM on Friday 24 Oct 2014 (Local Time) from KLVL Reporting Station
Clear Clear  
Wind Chill: 53°   Ceiling: Unl
Heat Index: 53°   Visibility: 10mi
Dew Point: 51°   Wind: 0mph
Humidity: 95%   Direction: NA
Pressure: 29.95"   Gusts: NA
Location:  36.9°N, 77.77°W
Report Text: KLVL 242355Z AUTO 00000KT 10SM CLR 11/11 A2995 RMK AO1 T01140106 10203 20114
Loading
Personal Weather Stations






























Interactive Weather Map
Tropical Storm Tracking
New forecast layout! Learn more

10-Day Weather Forecast

Advertisements
Track Severe Weather on mobile